Time;durP1;ratioP1;P1;durP2;ratioP2;P2;SDS_P1;SDS_P2;PMS_P1;PMS_P2;Temp;Humidity;BMP_temperature;BMP_pressure;BME280_temperature;BME280_humidity;BME280_pressure;Samples;Min_cycle;Max_cycle;Signal;HPM_P1;HPM_P2
2021/06/12 08:58:29;;;;;;;15.20;13.45;;;;;;;;;;6251396;22;20024;-90
2021/06/12 09:09:39;;;;;;;;;;;;;;;;;;6244150;22;20019;-90
2021/06/12 09:12:04;;;;;;;15.60;13.82;;;;;;;;;;6219413;23;19915;-91
2021/06/12 09:14:30;;;;;;;13.32;12.02;;;;;;;;;;6219408;23;20004;-90
2021/06/12 09:16:55;;;;;;;13.82;12.32;;;;;;;;;;6218981;23;20058;-91
2021/06/12 09:19:21;;;;;;;13.57;12.35;;;;;;;;;;6218664;23;20004;-91
2021/06/12 09:21:58;;;;;;;13.50;12.20;;;;;;;;;;6218206;23;20000;-92
2021/06/12 09:24:25;;;;;;;13.40;11.95;;;;;;;;;;6217986;23;20003;-92
2021/06/12 09:26:57;;;;;;;15.43;13.90;;;;;;;;;;6219108;23;20011;-91
2021/06/12 09:29:37;;;;;;;15.07;13.32;;;;;;;;;;6220729;23;20019;-90
2021/06/12 09:32:13;;;;;;;13.95;12.52;;;;;;;;;;6220052;23;20014;-91
2021/06/12 09:34:38;;;;;;;13.73;12.35;;;;;;;;;;6220370;23;20065;-92
2021/06/12 09:37:16;;;;;;;13.48;12.18;;;;;;;;;;6219331;23;20357;-91
2021/06/12 09:39:43;;;;;;;15.20;13.70;;;;;;;;;;6219793;23;20087;-91
2021/06/12 09:42:08;;;;;;;15.15;13.40;;;;;;;;;;6246591;22;20398;-92
2021/06/12 09:44:49;;;;;;;15.57;14.07;;;;;;;;;;6219715;23;20007;-92
2021/06/12 09:47:17;;;;;;;15.45;13.30;;;;;;;;;;6219681;23;20444;-92
2021/06/12 09:49:43;;;;;;;16.63;15.00;;;;;;;;;;6246885;23;20479;-90
2021/06/12 09:52:22;;;;;;;14.30;13.00;;;;;;;;;;6246486;23;20063;-91
2021/06/12 09:55:00;;;;;;;14.90;13.60;;;;;;;;;;6219139;23;20006;-92
2021/06/12 09:57:51;;;;;;;15.55;14.05;;;;;;;;;;6246620;23;19996;-91
2021/06/12 10:00:57;;;;;;;14.55;13.02;;;;;;;;;;6246681;23;20050;-90
2021/06/12 10:03:32;;;;;;;13.32;12.00;;;;;;;;;;6241537;23;20430;-90
2021/06/12 10:06:18;;;;;;;13.73;12.52;;;;;;;;;;6219078;23;19999;-94
2021/06/12 10:08:58;;;;;;;20.67;13.82;;;;;;;;;;6194039;23;20052;-89
2021/06/12 10:11:29;;;;;;;18.83;13.90;;;;;;;;;;6218940;23;20012;-89
2021/06/12 10:14:05;;;;;;;21.95;14.75;;;;;;;;;;6245707;23;20077;-87
2021/06/12 10:16:42;;;;;;;35.25;16.30;;;;;;;;;;6246638;23;20003;-88
2021/06/12 10:19:17;;;;;;;12.90;11.68;;;;;;;;;;6219285;23;20015;-93
2021/06/12 10:21:43;;;;;;;18.08;11.43;;;;;;;;;;6247326;23;20307;-92
2021/06/12 10:24:09;;;;;;;12.52;11.13;;;;;;;;;;6220222;23;20000;-95
2021/06/12 10:26:35;;;;;;;20.20;16.45;;;;;;;;;;6195076;23;20008;-96
2021/06/12 10:29:02;;;;;;;14.55;13.23;;;;;;;;;;6219394;23;20001;-95
2021/06/12 10:31:37;;;;;;;26.92;13.02;;;;;;;;;;6221361;23;20061;-91
2021/06/12 10:34:04;;;;;;;15.93;12.27;;;;;;;;;;6220972;23;20075;-92
2021/06/12 10:36:33;;;;;;;11.95;9.60;;;;;;;;;;6220180;23;19996;-94
2021/06/12 10:39:30;;;;;;;11.30;9.55;;;;;;;;;;6220175;23;20004;-94
2021/06/12 10:42:09;;;;;;;12.43;11.18;;;;;;;;;;6207619;23;20004;-91
2021/06/12 10:44:54;;;;;;;10.57;9.55;;;;;;;;;;6246933;23;20006;-95
2021/06/12 10:47:42;;;;;;;13.68;11.90;;;;;;;;;;6220304;23;20476;-91
2021/06/12 10:50:25;;;;;;;29.15;24.10;;;;;;;;;;6219679;23;20011;-93
2021/06/12 10:53:13;;;;;;;14.93;11.50;;;;;;;;;;6219971;23;20434;-89
2021/06/12 10:55:48;;;;;;;9.70;8.70;;;;;;;;;;6243912;23;20437;-90
2021/06/12 10:58:40;;;;;;;10.32;9.13;;;;;;;;;;6216544;23;20004;-90
2021/06/12 11:01:06;;;;;;;13.23;11.85;;;;;;;;;;6204351;23;20004;-91
2021/06/12 11:04:12;;;;;;;40.65;28.08;;;;;;;;;;6217309;23;20054;-91
2021/06/12 11:09:33;;;;;;;14.55;12.98;;;;;;;;;;6245275;23;20035;-89
2021/06/12 11:12:03;;;;;;;34.00;26.73;;;;;;;;;;6218810;23;20044;-92
2021/06/12 11:14:34;;;;;;;21.05;15.65;;;;;;;;;;6244259;23;20018;-93
2021/06/12 11:20:45;;;;;;;;;;;;;;;;;;;;;
2021/06/12 11:23:53;;;;;;;12.02;8.73;;;;;;;;;;6244144;23;20068;-87
2021/06/12 11:27:12;;;;;;;12.30;9.18;;;;;;;;;;6218385;23;20004;-87
2021/06/12 11:33:31;;;;;;;9.32;8.13;;;;;;;;;;6093371;23;20094;-88
2021/06/12 11:36:25;;;;;;;8.95;7.30;;;;;;;;;;6093113;23;20049;-87
2021/06/12 11:39:22;;;;;;;10.07;8.30;;;;;;;;;;6093520;23;20343;-87
2021/06/12 11:42:20;;;;;;;7.97;7.07;;;;;;;;;;6093157;23;20003;-88
2021/06/12 11:44:51;;;;;;;10.02;6.57;;;;;;;;;;6093829;23;20002;-88
2021/06/12 11:47:49;;;;;;;8.18;7.47;;;;;;;;;;6089720;23;20017;-87
2021/06/12 11:50:16;;;;;;;7.75;5.50;;;;;;;;;;6047962;23;20062;-88
2021/06/12 11:52:43;;;;;;;10.48;6.10;;;;;;;;;;6094135;23;20002;-87
2021/06/12 11:55:17;;;;;;;8.75;5.80;;;;;;;;;;6069453;23;20010;-87
2021/06/12 11:57:46;;;;;;;9.25;5.72;;;;;;;;;;6068964;23;20425;-88
2021/06/12 12:00:34;;;;;;;9.02;5.65;;;;;;;;;;6092971;23;20006;-89
2021/06/12 12:03:29;;;;;;;7.45;5.38;;;;;;;;;;6092633;23;20006;-88
2021/06/12 12:06:09;;;;;;;6.30;5.03;;;;;;;;;;6092650;23;20065;-88
2021/06/12 12:09:12;;;;;;;6.40;5.45;;;;;;;;;;6088807;23;20073;-87
2021/06/12 12:11:39;;;;;;;7.82;5.72;;;;;;;;;;6216073;23;20004;-86
2021/06/12 12:14:09;;;;;;;6.95;5.45;;;;;;;;;;6243171;23;20003;-85
2021/06/12 12:16:36;;;;;;;11.20;5.50;;;;;;;;;;6243668;23;20002;-87
2021/06/12 12:19:02;;;;;;;7.40;4.97;;;;;;;;;;6217954;23;19996;-86
2021/06/12 12:21:35;;;;;;;6.20;4.72;;;;;;;;;;6244292;23;20023;-86
2021/06/12 12:24:04;;;;;;;5.38;4.63;;;;;;;;;;6216887;23;20061;-87
2021/06/12 12:26:29;;;;;;;5.32;4.78;;;;;;;;;;6244768;23;20334;-86
2021/06/12 12:29:09;;;;;;;6.38;4.53;;;;;;;;;;6245330;23;19996;-86
2021/06/12 12:31:47;;;;;;;5.93;4.13;;;;;;;;;;6217593;23;20003;-86
2021/06/12 12:34:18;;;;;;;9.07;4.20;;;;;;;;;;6218143;23;20078;-86
2021/06/12 12:36:49;;;;;;;4.45;4.05;;;;;;;;;;6218549;23;19999;-88
2021/06/12 12:39:15;;;;;;;8.85;4.70;;;;;;;;;;6244113;23;20087;-86
2021/06/12 12:42:02;;;;;;;4.65;4.00;;;;;;;;;;6244484;22;20003;-87
2021/06/12 12:44:28;;;;;;;6.63;4.22;;;;;;;;;;6217760;23;20054;-86
2021/06/12 12:46:54;;;;;;;4.40;4.00;;;;;;;;;;6244063;23;20004;-85
2021/06/12 12:49:28;;;;;;;6.45;4.10;;;;;;;;;;6217932;23;20079;-86
2021/06/12 12:52:02;;;;;;;11.52;4.35;;;;;;;;;;6217744;23;20007;-84
2021/06/12 12:54:30;;;;;;;6.50;3.60;;;;;;;;;;6244494;23;20419;-86
2021/06/12 12:57:07;;;;;;;5.50;3.90;;;;;;;;;;6244842;23;19992;-85
2021/06/12 12:59:41;;;;;;;4.85;3.78;;;;;;;;;;6217517;23;20431;-86
2021/06/12 13:02:14;;;;;;;4.97;3.83;;;;;;;;;;6244244;23;20007;-85
2021/06/12 13:04:43;;;;;;;4.65;3.75;;;;;;;;;;6244415;23;20026;-87
2021/06/12 13:07:25;;;;;;;7.95;3.55;;;;;;;;;;6217556;23;20057;-89
2021/06/12 13:10:09;;;;;;;4.15;3.50;;;;;;;;;;6216959;23;20020;-88
2021/06/12 13:12:35;;;;;;;3.90;3.60;;;;;;;;;;6216813;23;20088;-87
2021/06/12 13:15:10;;;;;;;4.75;3.55;;;;;;;;;;6217878;23;20448;-86
2021/06/12 13:17:37;;;;;;;4.90;3.58;;;;;;;;;;6217694;23;20102;-85
2021/06/12 13:20:08;;;;;;;6.22;3.55;;;;;;;;;;6244074;23;19996;-85
2021/06/12 13:22:37;;;;;;;5.03;3.33;;;;;;;;;;6244349;23;19996;-85
2021/06/12 13:25:08;;;;;;;4.15;3.78;;;;;;;;;;6244453;23;20004;-85
2021/06/12 13:27:36;;;;;;;8.43;3.63;;;;;;;;;;6244688;23;20004;-83
2021/06/12 13:30:05;;;;;;;3.00;2.67;;;;;;;;;;6218042;23;20000;-87
2021/06/12 13:32:34;;;;;;;6.55;3.30;;;;;;;;;;6217727;23;20004;-86
2021/06/12 13:35:01;;;;;;;3.28;2.97;;;;;;;;;;6217892;23;19996;-85
2021/06/12 13:37:27;;;;;;;5.20;3.40;;;;;;;;;;6216414;23;20003;-85
2021/06/12 13:40:07;;;;;;;6.00;3.22;;;;;;;;;;6217776;23;20000;-85
2021/06/12 13:42:33;;;;;;;4.70;3.28;;;;;;;;;;6217302;23;20008;-87
2021/06/12 13:45:08;;;;;;;5.38;3.33;;;;;;;;;;6245017;23;20050;-87
2021/06/12 13:47:35;;;;;;;5.47;3.40;;;;;;;;;;6244388;23;20008;-86
2021/06/12 13:50:02;;;;;;;3.58;3.28;;;;;;;;;;6217558;23;20003;-86
2021/06/12 13:52:33;;;;;;;6.43;3.80;;;;;;;;;;6217525;23;19996;-87
2021/06/12 13:54:59;;;;;;;4.72;3.15;;;;;;;;;;6217781;23;20069;-87
2021/06/12 13:57:25;;;;;;;3.20;2.90;;;;;;;;;;6244910;23;20012;-86
2021/06/12 13:59:51;;;;;;;3.78;3.38;;;;;;;;;;6217447;23;20046;-85
2021/06/12 14:02:17;;;;;;;3.75;3.13;;;;;;;;;;6217750;23;20054;-85
2021/06/12 14:04:43;;;;;;;5.15;3.80;;;;;;;;;;6218245;23;20019;-84
2021/06/12 14:07:09;;;;;;;5.00;3.33;;;;;;;;;;6244109;23;20004;-83
2021/06/12 14:09:40;;;;;;;3.25;2.95;;;;;;;;;;6244874;23;20020;-92
2021/06/12 14:12:06;;;;;;;7.28;3.20;;;;;;;;;;6216078;23;20034;-84
2021/06/12 14:14:31;;;;;;;3.60;3.30;;;;;;;;;;6246064;23;20054;-86
2021/06/12 14:16:57;;;;;;;3.47;2.63;;;;;;;;;;6246264;23;20063;-86
2021/06/12 14:19:23;;;;;;;3.20;2.88;;;;;;;;;;6219793;23;20054;-86
2021/06/12 14:21:50;;;;;;;6.00;2.80;;;;;;;;;;6218874;23;20087;-87
2021/06/12 14:24:17;;;;;;;5.00;3.03;;;;;;;;;;6244872;23;20480;-86
2021/06/12 14:26:46;;;;;;;4.35;2.80;;;;;;;;;;6218732;23;20004;-88
2021/06/12 14:29:16;;;;;;;3.97;3.00;;;;;;;;;;6217437;23;20011;-88
2021/06/12 14:31:42;;;;;;;3.63;2.70;;;;;;;;;;6245547;23;19996;-85
2021/06/12 14:34:08;;;;;;;4.15;2.90;;;;;;;;;;6245447;23;20426;-85
2021/06/12 14:36:33;;;;;;;3.42;2.90;;;;;;;;;;6245821;23;20007;-87
2021/06/12 14:38:59;;;;;;;4.97;3.10;;;;;;;;;;6245457;23;20057;-86
2021/06/12 14:41:25;;;;;;;5.63;2.88;;;;;;;;;;6218764;22;20077;-86
2021/06/12 14:43:50;;;;;;;4.85;3.20;;;;;;;;;;6217495;23;20004;-85
2021/06/12 14:46:16;;;;;;;6.68;2.97;;;;;;;;;;6244860;23;20027;-85
2021/06/12 14:48:42;;;;;;;4.03;2.85;;;;;;;;;;6244578;23;20342;-84
2021/06/12 14:51:07;;;;;;;5.50;2.90;;;;;;;;;;6245097;23;20426;-91
2021/06/12 14:53:33;;;;;;;6.22;3.20;;;;;;;;;;6218967;23;20330;-85
2021/06/12 14:55:59;;;;;;;3.65;3.03;;;;;;;;;;6218948;23;20004;-85
2021/06/12 14:58:24;;;;;;;5.60;3.00;;;;;;;;;;6245104;23;20480;-84
2021/06/12 15:00:49;;;;;;;3.88;3.00;;;;;;;;;;6245435;23;20488;-83
2021/06/12 15:03:19;;;;;;;6.50;2.95;;;;;;;;;;6244951;23;20379;-83
2021/06/12 15:05:45;;;;;;;4.93;3.10;;;;;;;;;;6245341;23;20004;-84
2021/06/12 15:08:11;;;;;;;5.45;3.03;;;;;;;;;;6217757;23;20126;-83
2021/06/12 15:10:36;;;;;;;8.77;2.92;;;;;;;;;;6218837;23;20456;-83
2021/06/12 15:13:02;;;;;;;2.80;2.60;;;;;;;;;;6218591;23;20003;-84
2021/06/12 15:15:28;;;;;;;3.28;2.83;;;;;;;;;;6217909;23;20008;-84
2021/06/12 15:17:53;;;;;;;3.92;2.70;;;;;;;;;;6245037;23;20053;-84
2021/06/12 15:20:19;;;;;;;3.38;2.58;;;;;;;;;;6244824;23;20549;-87
2021/06/12 15:22:45;;;;;;;5.60;2.97;;;;;;;;;;6245308;23;20000;-87
2021/06/12 15:25:14;;;;;;;3.75;2.60;;;;;;;;;;6218620;23;20472;-87
2021/06/12 15:27:40;;;;;;;3.75;2.85;;;;;;;;;;6244519;23;20437;-87
2021/06/12 15:30:09;;;;;;;4.53;2.63;;;;;;;;;;6245797;23;20463;-91
2021/06/12 15:32:36;;;;;;;3.55;2.40;;;;;;;;;;6245368;23;19996;-90
2021/06/12 15:35:06;;;;;;;3.58;2.30;;;;;;;;;;6218674;23;20004;-91
2021/06/12 15:37:32;;;;;;;3.78;2.53;;;;;;;;;;6217817;23;20007;-88
2021/06/12 15:39:57;;;;;;;3.88;2.45;;;;;;;;;;6217987;23;20020;-89
2021/06/12 15:42:26;;;;;;;3.13;2.30;;;;;;;;;;6218445;23;20004;-88
2021/06/12 15:44:52;;;;;;;4.93;2.17;;;;;;;;;;6218535;23;20000;-92
2021/06/12 15:47:18;;;;;;;9.18;2.17;;;;;;;;;;6218634;23;20440;-90
2021/06/12 15:49:44;;;;;;;2.63;2.05;;;;;;;;;;6245226;23;20000;-88
2021/06/12 15:52:09;;;;;;;2.30;2.00;;;;;;;;;;6218862;23;20000;-88
2021/06/12 15:54:34;;;;;;;16.55;3.25;;;;;;;;;;6244979;23;20003;-90
2021/06/12 15:57:00;;;;;;;4.28;2.35;;;;;;;;;;6218083;23;20075;-88
2021/06/12 15:59:25;;;;;;;4.35;2.40;;;;;;;;;;6245299;23;20000;-90
2021/06/12 16:01:51;;;;;;;2.10;1.90;;;;;;;;;;6218671;23;19999;-90
2021/06/12 16:04:17;;;;;;;2.35;2.15;;;;;;;;;;6218149;23;20004;-93
2021/06/12 16:06:42;;;;;;;3.80;2.00;;;;;;;;;;6218337;23;20438;-89
2021/06/12 16:09:07;;;;;;;2.65;1.88;;;;;;;;;;6218350;23;20050;-90
2021/06/12 16:11:33;;;;;;;4.00;2.13;;;;;;;;;;6218942;23;20027;-88
2021/06/12 16:14:01;;;;;;;3.22;2.40;;;;;;;;;;6218656;23;20354;-89
2021/06/12 16:16:27;;;;;;;2.65;2.05;;;;;;;;;;6245194;23;20067;-87
2021/06/12 16:18:52;;;;;;;2.53;2.15;;;;;;;;;;6218096;23;20370;-89
2021/06/12 16:21:18;;;;;;;2.50;2.10;;;;;;;;;;6218821;23;20000;-90
2021/06/12 16:23:43;;;;;;;3.88;1.90;;;;;;;;;;6218434;23;20031;-89
2021/06/12 16:26:08;;;;;;;2.88;1.60;;;;;;;;;;6218136;23;20459;-89
2021/06/12 16:28:34;;;;;;;8.98;2.17;;;;;;;;;;6244366;23;20628;-89
2021/06/12 16:31:00;;;;;;;4.75;1.70;;;;;;;;;;6218229;23;20449;-90
2021/06/12 16:33:25;;;;;;;4.00;1.50;;;;;;;;;;6217672;23;20035;-88
2021/06/12 16:35:51;;;;;;;2.67;1.75;;;;;;;;;;6218050;23;20000;-88
2021/06/12 16:38:16;;;;;;;2.08;1.80;;;;;;;;;;6218150;23;20129;-88
2021/06/12 16:40:42;;;;;;;4.95;1.92;;;;;;;;;;6218007;23;20004;-87
2021/06/12 16:43:08;;;;;;;3.88;1.77;;;;;;;;;;6244849;22;20046;-90
2021/06/12 16:45:34;;;;;;;3.95;1.50;;;;;;;;;;6217935;23;20000;-89
2021/06/12 16:47:59;;;;;;;2.97;1.98;;;;;;;;;;6217970;23;20434;-87
2021/06/12 16:50:25;;;;;;;2.58;1.48;;;;;;;;;;6218026;23;20003;-88
2021/06/12 16:52:51;;;;;;;3.03;1.40;;;;;;;;;;6218190;23;19996;-87
2021/06/12 17:00:37;;;;;;;1.83;1.40;;;;;;;;;;6244549;23;20438;-90
2021/06/12 17:03:07;;;;;;;3.35;1.50;;;;;;;;;;6218418;23;20007;-90
2021/06/12 17:05:32;;;;;;;2.08;1.55;;;;;;;;;;6235824;23;20021;-90
2021/06/12 17:08:03;;;;;;;1.80;1.48;;;;;;;;;;6218089;23;20022;-90
2021/06/12 17:10:29;;;;;;;3.33;1.58;;;;;;;;;;6217837;23;19999;-90
2021/06/12 17:12:55;;;;;;;3.55;1.70;;;;;;;;;;6218182;23;20007;-91
2021/06/12 17:15:21;;;;;;;1.77;1.55;;;;;;;;;;6217354;23;20071;-90
2021/06/12 17:17:47;;;;;;;3.92;1.55;;;;;;;;;;6218037;23;20004;-90
2021/06/12 17:20:15;;;;;;;4.55;1.63;;;;;;;;;;6216990;23;20031;-89
2021/06/12 17:22:41;;;;;;;3.45;1.35;;;;;;;;;;6218101;23;20384;-90
2021/06/12 17:25:08;;;;;;;5.05;1.70;;;;;;;;;;6218197;23;20031;-90
2021/06/12 17:27:35;;;;;;;3.25;1.27;;;;;;;;;;6216973;23;20008;-90
2021/06/12 17:30:05;;;;;;;3.85;1.35;;;;;;;;;;6218096;23;20035;-90
2021/06/12 17:32:31;;;;;;;;;;;;;;;;;;6218675;23;20004;-90
2021/06/12 17:34:56;;;;;;;2.28;1.40;;;;;;;;;;6243820;23;19903;-91
2021/06/12 17:37:22;;;;;;;2.90;1.45;;;;;;;;;;6217266;23;20004;-90
2021/06/12 17:39:48;;;;;;;3.90;1.40;;;;;;;;;;6244609;23;20001;-90
2021/06/12 17:42:14;;;;;;;3.00;1.33;;;;;;;;;;6244424;22;20004;-91
2021/06/12 17:44:39;;;;;;;2.78;1.10;;;;;;;;;;6217590;23;20004;-90
2021/06/12 17:47:05;;;;;;;2.05;1.33;;;;;;;;;;6219322;23;20461;-90
2021/06/12 17:49:31;;;;;;;1.90;1.67;;;;;;;;;;6220024;23;20011;-90
2021/06/12 17:51:56;;;;;;;2.20;1.70;;;;;;;;;;6219925;23;20028;-90
2021/06/12 17:54:22;;;;;;;1.70;1.60;;;;;;;;;;6220035;23;20001;-91
2021/06/12 17:56:48;;;;;;;2.38;1.67;;;;;;;;;;6219545;23;19999;-90
2021/06/12 17:59:15;;;;;;;4.50;1.58;;;;;;;;;;6246059;23;20075;-91
2021/06/12 18:01:41;;;;;;;1.92;1.60;;;;;;;;;;6219442;23;20011;-90
2021/06/12 18:04:07;;;;;;;3.15;1.33;;;;;;;;;;6246948;23;20004;-89
2021/06/12 18:06:32;;;;;;;2.00;1.40;;;;;;;;;;6246488;23;20011;-90
2021/06/12 18:08:59;;;;;;;3.47;1.60;;;;;;;;;;6218963;23;20047;-90
2021/06/12 18:11:35;;;;;;;3.95;1.80;;;;;;;;;;6218334;23;20000;-89
2021/06/12 18:14:04;;;;;;;4.47;2.00;;;;;;;;;;6245830;23;20000;-90
2021/06/12 18:16:29;;;;;;;4.97;2.08;;;;;;;;;;6245867;23;20047;-91
2021/06/12 18:18:58;;;;;;;3.33;1.70;;;;;;;;;;6246693;23;19996;-91
2021/06/12 18:21:24;;;;;;;4.55;1.67;;;;;;;;;;6246085;23;20018;-90
2021/06/12 18:23:50;;;;;;;5.45;1.77;;;;;;;;;;6219322;23;20004;-92
2021/06/12 18:26:16;;;;;;;2.88;1.50;;;;;;;;;;6219304;23;20008;-91
2021/06/12 18:28:42;;;;;;;3.67;1.73;;;;;;;;;;6218682;23;20091;-92
2021/06/12 18:31:08;;;;;;;3.60;1.90;;;;;;;;;;6219604;23;20445;-92
2021/06/12 18:33:36;;;;;;;2.78;1.80;;;;;;;;;;6219484;23;20034;-92
2021/06/12 18:36:02;;;;;;;4.07;1.80;;;;;;;;;;6246590;23;20067;-92
2021/06/12 18:38:28;;;;;;;4.05;2.13;;;;;;;;;;6246696;23;20020;-91
2021/06/12 18:40:53;;;;;;;3.00;1.52;;;;;;;;;;6219499;23;19996;-92
2021/06/12 18:43:19;;;;;;;3.78;1.80;;;;;;;;;;6219486;23;20008;-92
2021/06/12 18:45:51;;;;;;;3.97;2.17;;;;;;;;;;6219174;23;20000;-91
2021/06/12 18:48:18;;;;;;;1.95;1.65;;;;;;;;;;6219892;23;20087;-92
2021/06/12 18:50:44;;;;;;;2.15;1.90;;;;;;;;;;6246220;23;20007;-92
2021/06/12 18:53:10;;;;;;;2.10;1.80;;;;;;;;;;6220083;23;20004;-93
2021/06/12 18:55:36;;;;;;;3.78;1.80;;;;;;;;;;6219777;23;19995;-93
2021/06/12 18:58:04;;;;;;;2.25;1.83;;;;;;;;;;6218678;23;19996;-93
2021/06/12 19:00:30;;;;;;;4.63;2.15;;;;;;;;;;6219723;23;20374;-92
2021/06/12 19:02:59;;;;;;;4.95;1.98;;;;;;;;;;6245857;23;19996;-92
2021/06/12 19:05:24;;;;;;;1.85;1.70;;;;;;;;;;6219526;23;20533;-92
2021/06/12 19:07:50;;;;;;;3.55;1.80;;;;;;;;;;6245692;23;20012;-93
2021/06/12 19:10:18;;;;;;;2.90;2.05;;;;;;;;;;6218914;23;20000;-92
2021/06/12 19:12:44;;;;;;;5.30;2.53;;;;;;;;;;6245505;23;20000;-93
2021/06/12 19:15:11;;;;;;;3.17;2.45;;;;;;;;;;6245955;23;19996;-92
2021/06/12 19:17:37;;;;;;;3.42;2.70;;;;;;;;;;6219204;23;20000;-93
2021/06/12 19:20:05;;;;;;;6.93;2.58;;;;;;;;;;6218683;23;20422;-92
2021/06/12 19:22:31;;;;;;;8.90;2.85;;;;;;;;;;6218791;23;19996;-93
2021/06/12 19:24:57;;;;;;;4.78;2.60;;;;;;;;;;6218366;23;20004;-93
2021/06/12 19:27:23;;;;;;;2.50;1.80;;;;;;;;;;6218867;23;20087;-94
2021/06/12 19:29:48;;;;;;;5.25;2.30;;;;;;;;;;6218699;23;20031;-92
2021/06/12 19:32:15;;;;;;;4.38;2.03;;;;;;;;;;6245469;23;20064;-93
2021/06/12 19:34:47;;;;;;;3.63;1.63;;;;;;;;;;6218933;23;20000;-92
2021/06/12 19:37:28;;;;;;;6.32;4.97;;;;;;;;;;6218643;23;20453;-92
2021/06/12 19:39:54;;;;;;;7.28;5.40;;;;;;;;;;6218170;23;20501;-91
2021/06/12 19:42:19;;;;;;;6.38;5.47;;;;;;;;;;6218428;23;20042;-92
2021/06/12 19:44:45;;;;;;;5.18;2.85;;;;;;;;;;6218493;23;20023;-93
2021/06/12 19:47:11;;;;;;;3.55;2.67;;;;;;;;;;6218470;23;20050;-92
2021/06/12 19:49:37;;;;;;;3.92;2.60;;;;;;;;;;6245625;23;20026;-92
2021/06/12 19:52:04;;;;;;;4.88;3.50;;;;;;;;;;6218288;23;20003;-92
2021/06/12 19:54:32;;;;;;;3.67;2.58;;;;;;;;;;6243988;23;20032;-93
2021/06/12 19:56:58;;;;;;;2.97;2.30;;;;;;;;;;6218715;23;20000;-93
2021/06/12 19:59:24;;;;;;;3.42;2.35;;;;;;;;;;6218303;23;20026;-92
2021/06/12 20:01:49;;;;;;;4.70;2.30;;;;;;;;;;6218541;23;20004;-93
2021/06/12 20:04:15;;;;;;;5.57;2.55;;;;;;;;;;6218688;23;19999;-92
2021/06/12 20:06:43;;;;;;;3.35;2.38;;;;;;;;;;6245628;23;20000;-93
2021/06/12 20:09:16;;;;;;;7.75;2.42;;;;;;;;;;6218083;23;20485;-93
2021/06/12 20:11:42;;;;;;;7.68;2.38;;;;;;;;;;6218201;23;20004;-93
2021/06/12 20:14:11;;;;;;;5.95;2.15;;;;;;;;;;6218370;23;20067;-93
2021/06/12 20:16:37;;;;;;;2.10;1.90;;;;;;;;;;6240255;23;20004;-93
2021/06/12 20:19:03;;;;;;;10.35;2.42;;;;;;;;;;6218093;23;20058;-90
2021/06/12 20:21:28;;;;;;;4.30;2.10;;;;;;;;;;6245332;23;19996;-91
2021/06/12 20:23:54;;;;;;;4.47;2.40;;;;;;;;;;6244392;23;19992;-90
2021/06/12 20:26:23;;;;;;;5.68;4.22;;;;;;;;;;6218178;23;20090;-90
2021/06/12 20:28:49;;;;;;;11.38;8.27;;;;;;;;;;6244456;23;20083;-90
2021/06/12 20:31:14;;;;;;;5.18;3.80;;;;;;;;;;6218142;23;20030;-91
2021/06/12 20:33:40;;;;;;;7.75;3.38;;;;;;;;;;6218097;23;20054;-90
2021/06/12 20:36:06;;;;;;;7.20;4.90;;;;;;;;;;6218156;23;20007;-91
2021/06/12 20:38:31;;;;;;;5.80;4.18;;;;;;;;;;6217692;23;20434;-90
2021/06/12 20:41:12;;;;;;;4.05;2.72;;;;;;;;;;6217928;23;20003;-91
2021/06/12 20:43:37;;;;;;;4.85;3.70;;;;;;;;;;6217969;23;20445;-91
2021/06/12 20:46:03;;;;;;;17.52;9.65;;;;;;;;;;6244418;23;20000;-91
2021/06/12 20:48:29;;;;;;;25.23;15.80;;;;;;;;;;6217671;23;20008;-91
2021/06/12 20:50:55;;;;;;;23.50;16.00;;;;;;;;;;6218098;23;20027;-90
2021/06/12 20:53:21;;;;;;;12.68;8.88;;;;;;;;;;6218238;23;20007;-91
2021/06/12 20:55:46;;;;;;;16.95;11.13;;;;;;;;;;6217893;23;20455;-90
2021/06/12 20:58:12;;;;;;;5.40;4.47;;;;;;;;;;6218056;23;19996;-91
2021/06/12 21:00:40;;;;;;;3.78;2.17;;;;;;;;;;6218140;23;20009;-92
2021/06/12 21:03:06;;;;;;;2.97;2.00;;;;;;;;;;6218349;23;20004;-91
2021/06/12 21:05:32;;;;;;;3.80;2.20;;;;;;;;;;6217817;23;20016;-91
2021/06/12 21:07:58;;;;;;;3.30;2.25;;;;;;;;;;6217531;23;20024;-91
2021/06/12 21:10:24;;;;;;;8.20;3.50;;;;;;;;;;6244599;23;20050;-90
2021/06/12 21:12:51;;;;;;;7.00;3.50;;;;;;;;;;6218075;23;20024;-91
2021/06/12 21:15:19;;;;;;;4.65;3.00;;;;;;;;;;6245065;23;20027;-91
2021/06/12 21:17:45;;;;;;;3.88;2.70;;;;;;;;;;6217497;23;20000;-91
2021/06/12 21:20:11;;;;;;;4.57;3.00;;;;;;;;;;6244405;23;19996;-91
2021/06/12 21:22:37;;;;;;;5.63;2.60;;;;;;;;;;6219253;23;20010;-91
2021/06/12 21:25:24;;;;;;;3.63;2.45;;;;;;;;;;6219577;23;20007;-91
2021/06/12 21:27:50;;;;;;;6.68;2.60;;;;;;;;;;6246962;23;20015;-90
2021/06/12 21:30:16;;;;;;;4.53;3.00;;;;;;;;;;6219924;23;20004;-91
2021/06/12 21:32:44;;;;;;;3.40;2.63;;;;;;;;;;6220469;23;20079;-91
2021/06/12 21:35:10;;;;;;;5.80;3.10;;;;;;;;;;6246069;23;19996;-92
2021/06/12 21:37:36;;;;;;;6.95;2.60;;;;;;;;;;6219564;23;20496;-93
2021/06/12 21:40:03;;;;;;;8.13;6.32;;;;;;;;;;6219813;23;20019;-92
2021/06/12 21:42:28;;;;;;;7.85;4.90;;;;;;;;;;6219045;23;20000;-92
2021/06/12 21:44:54;;;;;;;5.53;2.75;;;;;;;;;;6219775;23;20003;-92
2021/06/12 21:47:20;;;;;;;4.90;2.90;;;;;;;;;;6219462;23;20385;-93
2021/06/12 21:49:46;;;;;;;5.25;2.97;;;;;;;;;;6219388;23;20046;-92
2021/06/12 21:52:12;;;;;;;5.30;2.80;;;;;;;;;;6219013;23;20008;-93
2021/06/12 21:54:37;;;;;;;4.72;2.40;;;;;;;;;;6219647;23;20453;-92
2021/06/12 21:57:03;;;;;;;4.75;2.60;;;;;;;;;;6219563;23;19996;-93
2021/06/12 21:59:29;;;;;;;7.05;2.20;;;;;;;;;;6219551;23;20007;-93
2021/06/12 22:01:56;;;;;;;2.67;2.00;;;;;;;;;;6219194;23;20003;-92
2021/06/12 22:04:22;;;;;;;2.90;2.20;;;;;;;;;;6219220;23;20027;-93
2021/06/12 22:06:48;;;;;;;4.30;2.15;;;;;;;;;;6219817;23;20024;-93
2021/06/12 22:09:13;;;;;;;6.05;2.47;;;;;;;;;;6214293;23;20012;-93
2021/06/12 22:11:39;;;;;;;5.22;2.40;;;;;;;;;;6189567;23;20008;-93
2021/06/12 22:14:04;;;;;;;4.85;2.70;;;;;;;;;;6216019;23;20366;-93
2021/06/12 22:16:30;;;;;;;6.10;2.58;;;;;;;;;;6189128;23;20428;-92
2021/06/12 22:18:57;;;;;;;2.88;2.30;;;;;;;;;;6189230;23;20000;-92
2021/06/12 22:21:29;;;;;;;3.50;2.35;;;;;;;;;;6188987;23;20075;-93
2021/06/12 22:23:55;;;;;;;4.13;2.60;;;;;;;;;;6189576;23;20005;-93
2021/06/12 22:26:21;;;;;;;3.45;2.03;;;;;;;;;;6214597;23;20335;-93
2021/06/12 22:28:46;;;;;;;5.05;2.50;;;;;;;;;;6216160;23;20001;-92
2021/06/12 22:31:14;;;;;;;2.92;2.20;;;;;;;;;;6215795;23;20462;-92
2021/06/12 22:33:39;;;;;;;2.50;2.30;;;;;;;;;;6188288;23;20007;-94
2021/06/12 22:36:07;;;;;;;3.90;2.38;;;;;;;;;;6189602;23;20028;-93
2021/06/12 22:38:32;;;;;;;3.75;2.22;;;;;;;;;;6214444;23;19997;-93
2021/06/12 22:40:58;;;;;;;3.35;2.10;;;;;;;;;;6189591;23;20337;-92
2021/06/12 22:43:24;;;;;;;7.57;2.83;;;;;;;;;;6189290;23;20001;-93
2021/06/12 22:45:50;;;;;;;16.13;2.33;;;;;;;;;;6189353;23;20031;-93
2021/06/12 22:48:16;;;;;;;5.53;2.35;;;;;;;;;;6215677;23;20009;-93
2021/06/12 22:50:43;;;;;;;3.45;2.40;;;;;;;;;;6208399;23;20403;-93
2021/06/12 22:53:09;;;;;;;4.25;2.40;;;;;;;;;;6189404;23;20470;-92
2021/06/12 22:55:36;;;;;;;4.45;2.40;;;;;;;;;;6214661;23;20334;-93
2021/06/12 22:58:02;;;;;;;5.45;2.60;;;;;;;;;;6189758;23;20075;-93
2021/06/12 23:00:28;;;;;;;5.80;2.40;;;;;;;;;;6214028;23;20031;-92
2021/06/12 23:02:54;;;;;;;3.08;2.50;;;;;;;;;;6214375;23;20004;-92
2021/06/12 23:05:20;;;;;;;5.65;2.28;;;;;;;;;;6189338;23;20001;-93
2021/06/12 23:07:45;;;;;;;4.15;2.53;;;;;;;;;;6189179;23;20021;-92
2021/06/12 23:10:14;;;;;;;3.83;2.47;;;;;;;;;;6189548;23;20071;-93
2021/06/12 23:12:41;;;;;;;3.70;2.30;;;;;;;;;;6189290;23;20005;-92
2021/06/12 23:15:07;;;;;;;5.07;2.45;;;;;;;;;;6189703;23;20000;-92
2021/06/12 23:17:32;;;;;;;8.52;2.70;;;;;;;;;;6189391;23;20004;-92
2021/06/12 23:19:58;;;;;;;4.55;2.50;;;;;;;;;;6189570;23;20000;-92
2021/06/12 23:22:25;;;;;;;2.42;2.22;;;;;;;;;;6190327;23;20004;-92
2021/06/12 23:24:50;;;;;;;5.38;2.78;;;;;;;;;;6215172;23;20074;-93
2021/06/12 23:27:15;;;;;;;5.05;2.65;;;;;;;;;;6189689;23;20435;-92
2021/06/12 23:29:41;;;;;;;3.22;2.72;;;;;;;;;;6190071;23;20397;-92
2021/06/12 23:32:07;;;;;;;4.75;2.60;;;;;;;;;;6189999;23;20461;-91
2021/06/12 23:34:34;;;;;;;3.08;2.72;;;;;;;;;;6189911;23;20031;-93
2021/06/12 23:37:00;;;;;;;7.05;2.63;;;;;;;;;;6189250;23;20001;-91
2021/06/12 23:39:25;;;;;;;5.00;2.78;;;;;;;;;;6189379;23;20457;-92
2021/06/12 23:41:51;;;;;;;3.30;2.55;;;;;;;;;;6189827;23;20344;-91
2021/06/12 23:44:17;;;;;;;4.07;2.80;;;;;;;;;;6189625;23;20055;-91
2021/06/12 23:46:43;;;;;;;5.57;2.92;;;;;;;;;;6189864;23;20007;-91
2021/06/12 23:49:10;;;;;;;7.28;2.92;;;;;;;;;;6189720;23;20070;-91
2021/06/12 23:51:36;;;;;;;3.55;2.72;;;;;;;;;;6190069;23;20083;-91
2021/06/12 23:54:04;;;;;;;8.90;3.15;;;;;;;;;;6189587;23;20001;-93
2021/06/12 23:56:29;;;;;;;6.35;3.17;;;;;;;;;;6189798;23;20011;-91
2021/06/12 23:58:55;;;;;;;4.35;2.83;;;;;;;;;;6189976;23;19996;-91
